createdAt,value
2018-04-11T00:01:53.919Z,11.70
2018-04-11T00:04:22.773Z,11.60
2018-04-11T00:06:50.822Z,11.60
2018-04-11T00:09:19.079Z,11.60
2018-04-11T00:11:47.135Z,11.60
2018-04-11T00:14:15.211Z,11.60
2018-04-11T00:16:44.033Z,11.50
2018-04-11T00:19:12.100Z,11.50
2018-04-11T00:21:40.150Z,11.50
2018-04-11T00:24:09.130Z,11.40
2018-04-11T00:26:38.079Z,11.40
2018-04-11T00:29:06.145Z,11.40
2018-04-11T00:31:34.206Z,11.40
2018-04-11T00:34:02.277Z,11.40
2018-04-11T00:36:30.338Z,11.40
2018-04-11T00:38:58.493Z,11.30
2018-04-11T00:41:26.592Z,11.20
2018-04-11T00:43:54.650Z,11.20
2018-04-11T00:46:22.773Z,11.10
2018-04-11T00:48:50.820Z,11.10
2018-04-11T00:51:18.886Z,11.00
2018-04-11T00:53:46.951Z,11.00
2018-04-11T00:56:15.039Z,10.90
2018-04-11T00:58:43.095Z,10.90
2018-04-11T01:01:11.169Z,10.80
2018-04-11T01:03:39.231Z,10.90
2018-04-11T01:06:07.418Z,10.90
2018-04-11T01:08:35.490Z,10.90
2018-04-11T01:11:03.597Z,10.90
2018-04-11T01:13:31.652Z,10.80
2018-04-11T01:15:59.694Z,10.80
2018-04-11T01:18:27.773Z,10.80
2018-04-11T01:20:55.847Z,10.90
2018-04-11T01:23:23.902Z,10.90
2018-04-11T01:25:51.994Z,10.90
2018-04-11T01:28:20.025Z,11.00
2018-04-11T01:30:48.142Z,11.00
2018-04-11T01:33:16.170Z,10.90
2018-04-11T01:35:44.215Z,10.90
2018-04-11T01:38:13.047Z,10.80
2018-04-11T01:40:41.085Z,10.80
2018-04-11T01:43:09.891Z,10.80
2018-04-11T01:45:37.973Z,10.80
2018-04-11T01:48:06.035Z,10.80
2018-04-11T01:50:34.858Z,10.80
2018-04-11T01:53:02.964Z,10.70
2018-04-11T01:55:31.042Z,10.70
2018-04-11T01:57:59.526Z,10.70
2018-04-11T02:00:28.333Z,10.80
2018-04-11T02:02:56.416Z,10.70
2018-04-11T02:05:24.554Z,10.80
2018-04-11T02:07:52.605Z,10.70
2018-04-11T02:10:20.665Z,10.70
2018-04-11T02:12:48.706Z,10.60
2018-04-11T02:15:16.758Z,10.60
2018-04-11T02:17:45.595Z,10.50
2018-04-11T02:20:13.631Z,10.50
2018-04-11T02:22:41.702Z,10.40
2018-04-11T02:25:10.236Z,10.30
2018-04-11T02:27:38.258Z,10.40
2018-04-11T02:30:06.316Z,10.40
2018-04-11T02:32:34.400Z,10.30
2018-04-11T02:35:02.449Z,10.30
2018-04-11T02:37:32.503Z,10.20
2018-04-11T02:40:01.418Z,10.20
2018-04-11T02:42:29.466Z,10.10
2018-04-11T02:44:57.555Z,10.10
2018-04-11T02:47:25.619Z,10.00
2018-04-11T02:49:53.717Z,10.00
2018-04-11T02:52:21.755Z,10.00
2018-04-11T02:54:49.822Z,9.90
2018-04-11T02:57:17.878Z,10.00
2018-04-11T02:59:45.943Z,9.90
2018-04-11T03:02:14.014Z,10.00
2018-04-11T03:04:42.213Z,10.00
2018-04-11T03:07:10.955Z,10.10
2018-04-11T03:09:39.901Z,10.20
2018-04-11T03:12:07.942Z,10.20
2018-04-11T03:14:36.034Z,10.20
2018-04-11T03:17:04.087Z,10.30
2018-04-11T03:19:32.158Z,10.30
2018-04-11T03:22:00.200Z,10.30
2018-04-11T03:24:29.045Z,10.30
2018-04-11T03:26:58.133Z,10.30
2018-04-11T03:29:26.227Z,10.30
2018-04-11T03:31:54.274Z,10.40
2018-04-11T03:34:22.376Z,10.40
2018-04-11T03:36:50.441Z,10.40
2018-04-11T03:39:18.512Z,10.40
2018-04-11T03:41:46.570Z,10.50
2018-04-11T03:44:14.635Z,10.50
2018-04-11T03:46:42.751Z,10.50
2018-04-11T03:49:10.840Z,10.50
2018-04-11T03:51:38.892Z,10.40
2018-04-11T03:54:06.958Z,10.50
2018-04-11T03:56:35.010Z,10.50
2018-04-11T03:59:03.083Z,10.50
2018-04-11T04:01:31.262Z,10.50
2018-04-11T04:03:59.416Z,10.50
2018-04-11T04:06:27.445Z,10.40
2018-04-11T04:08:55.518Z,10.40
2018-04-11T04:11:23.738Z,10.30
2018-04-11T04:14:03.621Z,10.20
2018-04-11T04:16:43.561Z,10.20
2018-04-11T04:19:17.383Z,10.20
2018-04-11T04:21:46.235Z,10.20
2018-04-11T04:24:14.472Z,10.20
2018-04-11T04:26:43.299Z,10.20
2018-04-11T04:29:11.451Z,10.20
2018-04-11T04:31:39.700Z,10.10
2018-04-11T04:34:07.720Z,10.10
2018-04-11T04:36:35.843Z,10.20
2018-04-11T04:39:03.882Z,10.20
2018-04-11T04:41:31.912Z,10.20
2018-04-11T04:43:59.957Z,10.20
2018-04-11T04:46:28.031Z,10.20
2018-04-11T04:48:56.766Z,10.20
2018-04-11T04:51:24.837Z,10.20
2018-04-11T04:53:53.609Z,10.20
2018-04-11T04:56:21.664Z,10.20
2018-04-11T04:58:49.742Z,10.20
2018-04-11T05:01:17.805Z,10.20
2018-04-11T05:03:45.868Z,10.20
2018-04-11T05:06:14.099Z,10.30
2018-04-11T05:08:42.173Z,10.30
2018-04-11T05:11:10.274Z,10.40
2018-04-11T05:13:38.346Z,10.40
2018-04-11T05:16:06.378Z,10.50
2018-04-11T05:18:34.454Z,10.50
2018-04-11T05:21:02.530Z,10.50
2018-04-11T05:23:30.593Z,10.50
2018-04-11T05:25:58.704Z,12.70
2018-04-11T05:28:27.534Z,10.60
2018-04-11T05:30:56.362Z,10.60
2018-04-11T05:33:25.995Z,10.70
2018-04-11T05:35:54.066Z,10.70
2018-04-11T05:38:22.097Z,10.80
2018-04-11T05:40:50.160Z,11.00
2018-04-11T05:43:18.229Z,11.10
2018-04-11T05:45:46.273Z,11.10
2018-04-11T05:48:14.330Z,11.20
2018-04-11T05:50:42.402Z,11.20
2018-04-11T05:53:10.477Z,11.10
2018-04-11T05:55:38.525Z,11.00
2018-04-11T05:58:06.574Z,11.10
2018-04-11T06:00:34.667Z,11.30
2018-04-11T06:03:03.525Z,11.40
2018-04-11T06:05:31.634Z,11.60
2018-04-11T06:07:59.661Z,11.90
2018-04-11T06:10:27.723Z,12.30
2018-04-11T06:12:55.768Z,12.30
2018-04-11T06:15:23.821Z,12.30
2018-04-11T06:17:51.994Z,12.20
2018-04-11T06:20:20.035Z,12.10
2018-04-11T06:22:48.200Z,12.00
2018-04-11T06:25:16.147Z,11.70
2018-04-11T06:27:44.201Z,11.60
2018-04-11T06:30:12.294Z,11.60
2018-04-11T06:32:40.335Z,11.40
2018-04-11T06:35:08.563Z,11.40
2018-04-11T06:37:36.942Z,11.30
2018-04-11T06:40:05.764Z,11.30
2018-04-11T06:42:34.602Z,11.30
2018-04-11T06:45:02.664Z,11.30
2018-04-11T06:47:31.512Z,11.20
2018-04-11T06:50:00.331Z,11.10
2018-04-11T06:52:28.475Z,11.10
2018-04-11T06:57:25.803Z,11.00
2018-04-11T06:59:53.883Z,13.40
2018-04-11T07:02:21.936Z,11.00
2018-04-11T07:04:50.006Z,11.00
2018-04-11T07:07:18.082Z,11.00
2018-04-11T07:09:46.122Z,11.00
2018-04-11T07:12:14.209Z,11.10
2018-04-11T07:14:43.028Z,11.10
2018-04-11T07:17:11.078Z,11.20
2018-04-11T07:19:39.138Z,11.20
2018-04-11T07:22:07.201Z,11.20
2018-04-11T07:24:36.098Z,11.30
2018-04-11T07:27:04.158Z,11.30
2018-04-11T07:29:32.202Z,11.30
2018-04-11T07:32:00.273Z,11.40
2018-04-11T07:34:28.351Z,11.40
2018-04-11T07:36:56.531Z,11.40
2018-04-11T07:39:24.561Z,11.40
2018-04-11T07:41:52.626Z,11.40
2018-04-11T07:44:20.728Z,11.40
2018-04-11T07:46:48.910Z,11.50
2018-04-11T07:49:16.982Z,11.60
2018-04-11T07:51:45.054Z,11.70
2018-04-11T07:54:13.114Z,11.90
2018-04-11T07:56:41.960Z,12.00
2018-04-11T07:59:10.834Z,12.10
2018-04-11T08:01:38.902Z,12.20
2018-04-11T08:04:06.954Z,12.20
2018-04-11T08:06:35.028Z,12.30
2018-04-11T08:09:03.063Z,12.30
2018-04-11T08:11:31.130Z,12.30
2018-04-11T08:13:59.187Z,12.30
2018-04-11T08:16:27.235Z,12.30
2018-04-11T08:18:55.359Z,12.30
2018-04-11T08:21:23.393Z,12.40
2018-04-11T08:23:51.348Z,12.40
2018-04-11T08:26:19.429Z,12.40
2018-04-11T08:28:49.270Z,12.60
2018-04-11T08:31:17.328Z,12.80
2018-04-11T08:33:45.458Z,12.90
2018-04-11T08:36:13.522Z,13.00
2018-04-11T08:38:41.581Z,15.40
2018-04-11T08:41:09.644Z,13.30
2018-04-11T08:43:38.492Z,13.60
2018-04-11T08:46:06.590Z,13.80
2018-04-11T08:48:34.634Z,13.90
2018-04-11T08:51:02.672Z,14.00
2018-04-11T08:53:30.752Z,13.90
2018-04-11T08:55:58.820Z,13.80
2018-04-11T08:58:26.887Z,13.80
2018-04-11T09:00:54.940Z,13.90
2018-04-11T09:03:23.026Z,14.30
2018-04-11T09:05:51.166Z,14.90
2018-04-11T09:08:19.997Z,17.90
2018-04-11T09:10:48.056Z,17.90
2018-04-11T09:13:16.168Z,20.60
2018-04-11T09:15:44.401Z,22.50
2018-04-11T09:18:12.452Z,23.70
2018-04-11T09:20:41.269Z,22.30
2018-04-11T09:23:09.333Z,23.10
2018-04-11T09:25:37.388Z,23.00
2018-04-11T09:28:06.218Z,22.40
2018-04-11T09:30:34.255Z,22.30
2018-04-11T09:33:02.339Z,21.60
2018-04-11T09:35:30.393Z,21.30
2018-04-11T09:37:59.214Z,22.00
2018-04-11T09:40:27.286Z,22.00
2018-04-11T09:42:55.591Z,23.00
2018-04-11T09:45:23.616Z,23.20
2018-04-11T09:47:51.714Z,23.10
2018-04-11T09:50:19.750Z,22.10
2018-04-11T09:52:47.838Z,20.90
2018-04-11T09:55:15.902Z,20.10
2018-04-11T09:57:43.958Z,20.50
2018-04-11T10:00:12.787Z,21.50
2018-04-11T10:02:40.857Z,21.50
2018-04-11T10:05:08.923Z,22.00
2018-04-11T10:07:36.968Z,21.60
2018-04-11T10:10:05.051Z,20.90
2018-04-11T10:12:33.113Z,20.10
2018-04-11T10:15:01.178Z,19.50
2018-04-11T10:17:29.225Z,19.00
2018-04-11T10:19:57.274Z,18.80
2018-04-11T10:22:25.346Z,18.60
2018-04-11T10:24:53.420Z,18.70
2018-04-11T10:27:21.472Z,18.60
2018-04-11T10:29:49.545Z,18.60
2018-04-11T10:32:17.888Z,18.30
2018-04-11T10:34:46.067Z,17.70
2018-04-11T10:37:14.112Z,17.60
2018-04-11T10:39:42.941Z,17.50
2018-04-11T10:42:10.975Z,17.50
2018-04-11T10:44:39.807Z,17.50
2018-04-11T10:47:07.874Z,17.50
2018-04-11T10:49:35.924Z,17.50
2018-04-11T10:52:03.961Z,17.70
2018-04-11T10:54:32.067Z,17.70
2018-04-11T10:57:00.078Z,17.80
2018-04-11T10:59:28.162Z,18.60
2018-04-11T11:01:56.281Z,18.30
2018-04-11T11:04:24.455Z,18.70
2018-04-11T11:06:52.510Z,19.20
2018-04-11T11:09:21.321Z,21.20
2018-04-11T11:11:49.380Z,21.20
2018-04-11T11:14:18.212Z,22.50
2018-04-11T11:16:46.309Z,22.40
2018-04-11T11:19:14.366Z,23.10
2018-04-11T11:21:42.439Z,23.70
2018-04-11T11:24:11.246Z,24.00
2018-04-11T11:26:39.310Z,24.00
2018-04-11T11:29:07.367Z,24.40
2018-04-11T11:31:35.442Z,24.40
2018-04-11T11:34:03.491Z,24.20
2018-04-11T11:36:31.538Z,23.50
2018-04-11T11:38:59.620Z,22.50
2018-04-11T11:41:27.688Z,21.60
2018-04-11T11:43:55.787Z,20.90
2018-04-11T11:46:23.829Z,20.60
2018-04-11T11:48:51.873Z,20.40
2018-04-11T11:51:20.780Z,20.60
2018-04-11T11:53:48.804Z,20.60
2018-04-11T11:56:17.910Z,20.60
2018-04-11T11:58:45.971Z,20.60
2018-04-11T12:01:14.018Z,20.90
2018-04-11T12:03:42.086Z,21.10
2018-04-11T12:06:10.157Z,21.00
2018-04-11T12:08:38.210Z,20.50
2018-04-11T12:11:06.279Z,20.10
2018-04-11T12:13:34.355Z,20.00
2018-04-11T12:16:02.397Z,19.90
2018-04-11T12:18:31.240Z,19.80
2018-04-11T12:20:59.311Z,19.70
2018-04-11T12:23:27.348Z,19.80
2018-04-11T12:25:55.415Z,19.70
2018-04-11T12:28:23.490Z,19.60
2018-04-11T12:30:52.297Z,19.30
2018-04-11T12:33:21.355Z,19.30
2018-04-11T12:35:49.410Z,19.20
2018-04-11T12:38:17.457Z,19.30
2018-04-11T12:40:45.501Z,19.40
2018-04-11T12:43:13.658Z,19.30
2018-04-11T12:45:41.691Z,19.20
2018-04-11T12:48:09.814Z,19.20
2018-04-11T12:50:38.593Z,19.10
2018-04-11T12:53:06.662Z,19.10
2018-04-11T12:55:34.735Z,19.40
2018-04-11T12:58:02.782Z,19.70
2018-04-11T13:00:30.841Z,19.90
2018-04-11T13:02:58.946Z,20.00
2018-04-11T13:05:26.985Z,20.00
2018-04-11T13:07:55.021Z,19.90
2018-04-11T13:10:23.062Z,20.10
2018-04-11T13:12:51.169Z,20.00
2018-04-11T13:15:19.218Z,19.90
2018-04-11T13:17:47.305Z,19.90
2018-04-11T13:20:15.350Z,19.80
2018-04-11T13:22:43.428Z,19.70
2018-04-11T13:25:11.462Z,22.90
2018-04-11T13:27:40.308Z,19.30
2018-04-11T13:30:08.405Z,19.30
2018-04-11T13:32:36.470Z,18.90
2018-04-11T13:35:04.527Z,18.90
2018-04-11T13:37:32.665Z,18.90
2018-04-11T13:40:00.675Z,19.10
2018-04-11T13:42:28.745Z,19.30
2018-04-11T13:44:56.795Z,19.40
2018-04-11T13:47:24.877Z,19.20
2018-04-11T13:49:52.945Z,19.20
2018-04-11T13:52:21.037Z,19.30
2018-04-11T13:54:49.078Z,19.30
2018-04-11T13:57:17.130Z,19.20
2018-04-11T13:59:46.533Z,18.90
2018-04-11T14:02:15.367Z,18.80
2018-04-11T14:04:43.400Z,18.70
2018-04-11T14:07:11.490Z,18.60
2018-04-11T14:09:39.580Z,18.60
2018-04-11T14:12:07.630Z,18.60
2018-04-11T14:14:35.687Z,18.50
2018-04-11T14:17:03.756Z,18.60
2018-04-11T14:19:31.811Z,18.60
2018-04-11T14:22:00.626Z,18.70
2018-04-11T14:24:28.703Z,18.70
2018-04-11T14:26:56.775Z,18.70
2018-04-11T14:29:24.812Z,18.70
2018-04-11T14:31:53.634Z,18.70
2018-04-11T14:34:21.700Z,18.70
2018-04-11T14:36:49.965Z,18.80
2018-04-11T14:39:17.965Z,18.90
2018-04-11T14:41:46.023Z,19.00
2018-04-11T14:44:14.081Z,19.10
2018-04-11T14:46:42.130Z,19.10
2018-04-11T14:49:10.996Z,19.30
2018-04-11T14:51:39.064Z,19.20
2018-04-11T14:54:07.146Z,19.40
2018-04-11T14:56:35.165Z,19.50
2018-04-11T14:59:03.209Z,19.60
2018-04-11T15:01:31.279Z,19.70
2018-04-11T15:04:00.106Z,19.70
2018-04-11T15:06:29.035Z,19.70
2018-04-11T15:11:31.423Z,19.50
2018-04-11T15:13:59.496Z,19.40
2018-04-11T15:16:27.576Z,19.40
2018-04-11T15:18:55.613Z,19.40
2018-04-11T15:21:23.682Z,19.50
2018-04-11T15:23:51.770Z,19.50
2018-04-11T15:26:19.868Z,19.60
2018-04-11T15:28:47.917Z,19.60
2018-04-11T15:31:16.010Z,19.60
2018-04-11T15:33:44.037Z,19.50
2018-04-11T15:36:12.098Z,19.30
2018-04-11T15:38:40.169Z,18.90
2018-04-11T15:41:08.936Z,18.80
2018-04-11T15:43:36.998Z,18.50
2018-04-11T15:46:05.981Z,18.30
2018-04-11T15:48:34.819Z,18.20
2018-04-11T15:51:02.882Z,18.00
2018-04-11T15:53:30.936Z,17.80
2018-04-11T15:55:59.018Z,17.40
2018-04-11T15:58:27.077Z,17.10
2018-04-11T16:00:55.182Z,17.00
2018-04-11T16:03:23.242Z,16.90
2018-04-11T16:05:51.327Z,16.80
2018-04-11T16:08:19.374Z,16.70
2018-04-11T16:10:47.464Z,16.60
2018-04-11T16:13:15.503Z,16.60
2018-04-11T16:15:43.571Z,16.60
2018-04-11T16:18:11.618Z,16.30
2018-04-11T16:20:41.184Z,16.70
2018-04-11T16:23:09.320Z,16.70
2018-04-11T16:25:37.841Z,16.70
2018-04-11T16:28:05.876Z,16.60
2018-04-11T16:30:34.366Z,16.40
2018-04-11T16:33:02.426Z,16.00
2018-04-11T16:35:30.514Z,15.80
2018-04-11T16:37:59.446Z,17.90
2018-04-11T16:40:27.487Z,15.60
2018-04-11T16:42:55.580Z,15.50
2018-04-11T16:45:23.605Z,15.50
2018-04-11T16:47:51.697Z,15.40
2018-04-11T16:50:19.830Z,15.20
2018-04-11T16:52:48.637Z,15.00
2018-04-11T16:55:16.758Z,15.00
2018-04-11T16:57:45.477Z,14.90
2018-04-11T17:00:14.334Z,14.90
2018-04-11T17:02:42.453Z,14.90
2018-04-11T17:05:10.879Z,14.90
2018-04-11T17:07:39.008Z,14.90
2018-04-11T17:10:07.807Z,14.80
2018-04-11T17:12:35.862Z,14.80
2018-04-11T17:15:04.700Z,14.70
2018-04-11T17:17:32.725Z,14.70
2018-04-11T17:20:00.812Z,14.70
2018-04-11T17:22:40.659Z,14.60
2018-04-11T17:25:20.951Z,14.50
2018-04-11T17:28:01.898Z,14.60
2018-04-11T17:30:41.929Z,14.50
2018-04-11T17:33:09.990Z,14.50
2018-04-11T17:35:39.315Z,14.50
2018-04-11T17:38:07.377Z,14.50
2018-04-11T17:40:35.446Z,14.50
2018-04-11T17:43:04.332Z,14.40
2018-04-11T17:45:33.222Z,14.30
2018-04-11T17:48:01.285Z,14.20
2018-04-11T17:50:30.910Z,14.20
2018-04-11T17:52:59.010Z,14.10
2018-04-11T17:55:27.108Z,14.10
2018-04-11T17:57:55.208Z,14.10
2018-04-11T18:00:24.418Z,14.00
2018-04-11T18:02:53.253Z,14.00
2018-04-11T18:05:21.325Z,14.00
2018-04-11T18:07:49.431Z,13.90
2018-04-11T18:10:17.517Z,13.80
2018-04-11T18:12:45.699Z,13.80
2018-04-11T18:15:14.526Z,13.80
2018-04-11T18:17:42.670Z,13.70
2018-04-11T18:20:11.514Z,13.70
2018-04-11T18:22:39.587Z,13.60
2018-04-11T18:25:09.168Z,13.60
2018-04-11T18:27:37.214Z,13.60
2018-04-11T18:30:05.261Z,13.60
2018-04-11T18:32:34.169Z,13.60
2018-04-11T18:35:02.178Z,13.50
2018-04-11T18:39:59.574Z,13.60
2018-04-11T18:42:27.651Z,13.50
2018-04-11T18:44:55.707Z,13.60
2018-04-11T18:49:53.082Z,13.60
2018-04-11T18:52:21.143Z,13.50
2018-04-11T18:54:49.443Z,13.50
2018-04-11T18:57:17.504Z,13.50
2018-04-11T18:59:45.582Z,13.50
2018-04-11T19:02:13.640Z,13.40
2018-04-11T19:04:41.714Z,13.40
2018-04-11T19:07:11.363Z,13.30
2018-04-11T19:09:39.421Z,13.30
2018-04-11T19:12:08.266Z,13.30
2018-04-11T19:14:36.339Z,13.30
2018-04-11T19:17:04.466Z,13.20
2018-04-11T19:19:32.509Z,13.30
2018-04-11T19:22:01.282Z,13.20
2018-04-11T19:24:29.350Z,13.10
2018-04-11T19:26:57.435Z,13.10
2018-04-11T19:29:26.532Z,13.00
2018-04-11T19:31:54.596Z,13.00
2018-04-11T19:34:22.656Z,12.90
2018-04-11T19:36:50.715Z,12.90
2018-04-11T19:39:18.770Z,12.80
2018-04-11T19:41:47.054Z,11.90
2018-04-11T19:44:15.116Z,12.70
2018-04-11T19:46:43.223Z,12.70
2018-04-11T19:49:11.248Z,12.50
2018-04-11T19:51:39.298Z,12.30
2018-04-11T19:54:07.367Z,12.10
2018-04-11T19:56:35.497Z,12.00
2018-04-11T19:59:04.113Z,11.90
2018-04-11T20:01:32.149Z,11.80
2018-04-11T20:04:00.239Z,11.80
2018-04-11T20:06:28.284Z,11.80
2018-04-11T20:08:56.364Z,11.80
2018-04-11T20:11:24.727Z,11.70
2018-04-11T20:13:53.550Z,11.80
2018-04-11T20:16:22.374Z,11.80
2018-04-11T20:18:50.466Z,11.90
2018-04-11T20:21:20.790Z,12.00
2018-04-11T20:23:48.883Z,12.00
2018-04-11T20:26:18.986Z,12.10
2018-04-11T20:28:47.050Z,12.20
2018-04-11T20:31:15.502Z,12.20
2018-04-11T20:33:45.552Z,12.20
2018-04-11T20:36:13.620Z,12.10
2018-04-11T20:38:42.820Z,12.00
2018-04-11T20:41:10.883Z,11.90
2018-04-11T20:43:39.010Z,11.80
2018-04-11T20:46:07.057Z,11.70
2018-04-11T20:48:35.123Z,11.60
2018-04-11T20:51:04.464Z,11.40
2018-04-11T20:53:33.522Z,11.30
2018-04-11T20:56:01.564Z,11.10
2018-04-11T20:58:31.249Z,11.10
2018-04-11T21:01:00.074Z,11.00
2018-04-11T21:03:28.607Z,10.90
2018-04-11T21:06:01.655Z,10.90
2018-04-11T21:08:30.538Z,10.90
2018-04-11T21:10:59.354Z,10.90
2018-04-11T21:13:27.417Z,10.80
2018-04-11T21:15:55.492Z,10.80
2018-04-11T21:18:24.254Z,10.80
2018-04-11T21:20:52.309Z,10.80
2018-04-11T21:23:21.102Z,10.70
2018-04-11T21:25:49.178Z,10.80
2018-04-11T21:28:17.907Z,10.80
2018-04-11T21:30:46.715Z,10.90
2018-04-11T21:33:14.869Z,11.00
2018-04-11T21:35:42.927Z,11.10
2018-04-11T21:38:11.987Z,11.20
2018-04-11T21:40:40.910Z,11.30
2018-04-11T21:43:08.979Z,11.30
2018-04-11T21:45:38.206Z,11.40
2018-04-11T21:48:07.138Z,11.30
2018-04-11T21:50:35.174Z,11.40
2018-04-11T21:53:03.233Z,11.40
2018-04-11T21:55:31.326Z,11.40
2018-04-11T21:57:59.822Z,11.40
2018-04-11T22:00:27.891Z,11.40
2018-04-11T22:02:56.769Z,11.40
2018-04-11T22:05:24.886Z,11.40
2018-04-11T22:07:52.967Z,11.20
2018-04-11T22:10:22.031Z,11.20
2018-04-11T22:12:50.682Z,11.00
2018-04-11T22:15:19.171Z,10.90
2018-04-11T22:17:48.727Z,10.90
2018-04-11T22:20:16.778Z,10.90
2018-04-11T22:22:45.308Z,10.90
2018-04-11T22:25:13.394Z,10.90
2018-04-11T22:27:42.724Z,10.90
2018-04-11T22:30:10.747Z,10.90
2018-04-11T22:32:38.791Z,10.80
2018-04-11T22:35:06.876Z,10.80
2018-04-11T22:37:34.974Z,10.70
2018-04-11T22:40:03.043Z,10.70
2018-04-11T22:42:31.115Z,10.70
2018-04-11T22:44:59.215Z,10.70
2018-04-11T22:47:28.067Z,10.70
2018-04-11T22:49:56.193Z,10.70
2018-04-11T22:52:24.249Z,10.70
2018-04-11T22:54:52.285Z,10.60
2018-04-11T22:57:20.381Z,10.60
2018-04-11T22:59:48.484Z,10.60
2018-04-11T23:02:16.517Z,10.60
2018-04-11T23:04:44.572Z,10.60
2018-04-11T23:07:12.637Z,10.70
2018-04-11T23:09:40.707Z,10.70
2018-04-11T23:12:08.763Z,10.70
2018-04-11T23:14:36.851Z,10.80
2018-04-11T23:17:04.913Z,10.80
2018-04-11T23:19:32.981Z,10.90
2018-04-11T23:22:01.037Z,11.00
2018-04-11T23:24:29.117Z,11.00
2018-04-11T23:26:57.170Z,11.10
2018-04-11T23:29:25.258Z,11.10
2018-04-11T23:31:53.302Z,11.10
2018-04-11T23:34:21.402Z,11.10
2018-04-11T23:36:49.483Z,11.10
2018-04-11T23:39:17.559Z,11.10
2018-04-11T23:41:45.621Z,11.20
2018-04-11T23:44:13.684Z,11.20
2018-04-11T23:46:41.767Z,11.30
2018-04-11T23:49:09.824Z,11.30
2018-04-11T23:51:37.911Z,11.30
2018-04-11T23:54:05.978Z,11.40
2018-04-11T23:56:34.038Z,11.30
2018-04-11T23:59:02.116Z,10.50
